createdAt,value
2023-03-14T00:00:52.927Z,972.41
2023-03-14T00:01:52.950Z,972.47
2023-03-14T00:02:52.982Z,972.46
2023-03-14T00:03:52.948Z,972.61
2023-03-14T00:04:52.960Z,972.56
2023-03-14T00:05:52.937Z,972.58
2023-03-14T00:06:52.952Z,972.57
2023-03-14T00:07:52.975Z,972.66
2023-03-14T00:08:52.957Z,972.62
2023-03-14T00:09:52.956Z,972.63
2023-03-14T00:10:52.969Z,972.56
2023-03-14T00:11:52.958Z,972.61
2023-03-14T00:12:52.952Z,972.68
2023-03-14T00:13:52.933Z,972.63
2023-03-14T00:14:52.938Z,972.63
2023-03-14T00:15:53.050Z,972.66
2023-03-14T00:16:52.963Z,972.63
2023-03-14T00:17:53.021Z,972.56
2023-03-14T00:18:52.941Z,972.67
2023-03-14T00:19:52.956Z,972.60
2023-03-14T00:20:52.950Z,972.62
2023-03-14T00:21:52.967Z,972.65
2023-03-14T00:22:53.567Z,2020.85
2023-03-14T00:23:53.559Z,1204.66
2023-03-14T00:24:53.566Z,972.61
2023-03-14T00:25:53.550Z,972.66
2023-03-14T00:26:53.583Z,972.77
2023-03-14T00:27:53.572Z,748.85
2023-03-14T00:28:53.566Z,972.87
2023-03-14T00:29:53.575Z,972.82
2023-03-14T00:30:53.610Z,972.82
2023-03-14T00:31:53.549Z,972.74
2023-03-14T00:32:53.648Z,972.71
2023-03-14T00:33:53.740Z,972.65
2023-03-14T00:34:53.574Z,972.62
2023-03-14T00:35:53.612Z,972.59
2023-03-14T00:36:53.542Z,972.53
2023-03-14T00:37:53.573Z,-174.52
2023-03-14T00:38:53.550Z,972.46
2023-03-14T00:39:53.545Z,972.46
2023-03-14T00:40:53.590Z,972.49
2023-03-14T00:41:53.563Z,-174.51
2023-03-14T00:42:53.597Z,972.30
2023-03-14T00:43:53.576Z,972.34
2023-03-14T00:44:53.540Z,972.30
2023-03-14T00:45:53.568Z,972.23
2023-03-14T00:46:53.653Z,972.15
2023-03-14T00:47:53.583Z,972.14
2023-03-14T00:48:53.613Z,972.08
2023-03-14T00:49:53.559Z,971.99
2023-03-14T00:50:53.566Z,748.98
2023-03-14T00:51:53.566Z,971.97
2023-03-14T00:52:53.571Z,972.01
2023-03-14T00:53:53.614Z,971.93
2023-03-14T00:54:53.559Z,971.83
2023-03-14T00:55:53.609Z,971.85
2023-03-14T00:57:14.757Z,0.00
2023-03-14T00:58:14.734Z,0.00
2023-03-14T00:59:14.752Z,0.00
2023-03-14T01:00:14.759Z,0.00
2023-03-14T01:01:14.728Z,0.00
2023-03-14T01:02:14.844Z,0.00
2023-03-14T01:03:14.783Z,0.00
2023-03-14T01:04:14.784Z,0.00
2023-03-14T01:05:14.777Z,0.00
2023-03-14T01:06:14.758Z,0.00
2023-03-14T01:07:14.750Z,0.00
2023-03-14T01:08:14.763Z,0.00
2023-03-14T01:09:14.791Z,0.00
2023-03-14T01:10:14.756Z,0.00
2023-03-14T01:11:14.745Z,0.00
2023-03-14T01:12:14.776Z,0.00
2023-03-14T01:13:14.973Z,0.00
2023-03-14T01:14:15.003Z,0.00
2023-03-14T01:15:15.004Z,0.00
2023-03-14T01:16:15.029Z,0.00
2023-03-14T01:17:15.029Z,0.00
2023-03-14T01:18:15.045Z,0.00
2023-03-14T01:19:15.497Z,0.00
2023-03-14T01:20:15.069Z,0.00
2023-03-14T01:21:15.046Z,0.00
2023-03-14T01:22:15.108Z,0.00
2023-03-14T01:23:15.089Z,0.00
2023-03-14T01:24:15.108Z,0.00
2023-03-14T01:25:15.162Z,0.00
2023-03-14T01:26:15.143Z,0.00
2023-03-14T01:27:15.143Z,0.00
2023-03-14T01:28:15.128Z,0.00
2023-03-14T01:29:15.140Z,0.00
2023-03-14T01:30:15.133Z,0.00
2023-03-14T01:31:15.176Z,0.00
2023-03-14T01:32:15.147Z,0.00
2023-03-14T01:33:15.130Z,0.00
2023-03-14T01:34:15.149Z,0.00
2023-03-14T01:35:15.160Z,0.00
2023-03-14T01:36:15.192Z,0.00
2023-03-14T01:37:15.166Z,0.00
2023-03-14T01:38:15.184Z,0.00
2023-03-14T01:39:15.300Z,0.00
2023-03-14T01:40:15.322Z,0.00
2023-03-14T01:41:15.353Z,0.00
2023-03-14T01:42:15.305Z,0.00
2023-03-14T01:43:15.305Z,0.00
2023-03-14T01:44:15.321Z,0.00
2023-03-14T01:45:15.309Z,0.00
2023-03-14T01:46:15.382Z,0.00
2023-03-14T01:47:15.308Z,0.00
2023-03-14T01:48:15.349Z,0.00
2023-03-14T01:49:15.334Z,0.00
2023-03-14T01:50:15.336Z,0.00
2023-03-14T01:51:15.348Z,0.00
2023-03-14T01:52:15.369Z,0.00
2023-03-14T01:53:15.335Z,0.00
2023-03-14T01:54:15.348Z,0.00
2023-03-14T01:55:15.396Z,0.00
2023-03-14T01:56:15.433Z,0.00
2023-03-14T01:57:15.411Z,0.00
2023-03-14T01:58:15.433Z,0.00
2023-03-14T01:59:15.435Z,0.00
2023-03-14T02:00:15.474Z,0.00
2023-03-14T02:01:18.458Z,0.00
2023-03-14T02:02:15.483Z,0.00
2023-03-14T02:03:15.487Z,0.00
2023-03-14T02:04:15.469Z,0.00
2023-03-14T02:05:15.475Z,0.00
2023-03-14T02:06:15.463Z,0.00
2023-03-14T02:07:15.576Z,0.00
2023-03-14T02:08:15.492Z,0.00
2023-03-14T02:09:15.473Z,0.00
2023-03-14T02:10:15.438Z,0.00
2023-03-14T02:11:15.511Z,0.00
2023-03-14T02:12:15.488Z,0.00
2023-03-14T02:13:15.489Z,0.00
2023-03-14T02:14:15.481Z,0.00
2023-03-14T02:15:15.464Z,0.00
2023-03-14T02:16:15.513Z,0.00
2023-03-14T02:17:15.472Z,0.00
2023-03-14T02:18:15.469Z,0.00
2023-03-14T02:19:15.470Z,0.00
2023-03-14T02:20:15.476Z,0.00
2023-03-14T02:21:15.488Z,0.00
2023-03-14T02:22:15.499Z,0.00
2023-03-14T02:23:15.496Z,0.00
2023-03-14T02:24:15.474Z,0.00
2023-03-14T02:25:15.481Z,0.00
2023-03-14T02:26:15.530Z,0.00
2023-03-14T02:27:15.510Z,0.00
2023-03-14T02:28:15.486Z,0.00
2023-03-14T02:29:15.482Z,0.00
2023-03-14T02:30:15.502Z,0.00
2023-03-14T02:31:15.506Z,0.00
2023-03-14T02:32:15.471Z,0.00
2023-03-14T02:33:15.466Z,0.00
2023-03-14T02:34:15.530Z,0.00
2023-03-14T02:35:15.478Z,0.00
2023-03-14T02:36:15.565Z,0.00
2023-03-14T02:37:15.465Z,0.00
2023-03-14T02:38:15.487Z,0.00
2023-03-14T02:39:15.478Z,0.00
2023-03-14T02:40:15.488Z,0.00
2023-03-14T02:41:15.497Z,0.00
2023-03-14T02:42:15.523Z,0.00
2023-03-14T02:43:15.474Z,0.00
2023-03-14T02:44:15.482Z,0.00
2023-03-14T02:45:15.473Z,0.00
2023-03-14T02:46:15.517Z,0.00
2023-03-14T02:47:15.527Z,0.00
2023-03-14T02:48:15.468Z,0.00
2023-03-14T02:49:15.468Z,0.00
2023-03-14T02:50:15.500Z,0.00
2023-03-14T02:51:15.481Z,0.00
2023-03-14T02:52:15.513Z,0.00
2023-03-14T02:53:15.515Z,0.00
2023-03-14T02:54:15.550Z,0.00
2023-03-14T02:55:15.562Z,0.00
2023-03-14T02:56:15.560Z,0.00
2023-03-14T02:57:15.683Z,0.00
2023-03-14T02:58:15.675Z,0.00
2023-03-14T02:59:15.672Z,0.00
2023-03-14T03:00:15.687Z,0.00
2023-03-14T03:01:15.757Z,0.00
2023-03-14T03:02:15.716Z,0.00
2023-03-14T03:03:15.809Z,0.00
2023-03-14T03:04:15.719Z,0.00
2023-03-14T03:05:15.733Z,0.00
2023-03-14T03:06:15.716Z,0.00
2023-03-14T03:07:15.710Z,0.00
2023-03-14T03:08:15.745Z,0.00
2023-03-14T03:09:15.731Z,0.00
2023-03-14T03:10:15.720Z,0.00
2023-03-14T03:11:15.737Z,0.00
2023-03-14T03:12:15.753Z,0.00
2023-03-14T03:13:15.785Z,0.00
2023-03-14T03:14:15.766Z,0.00
2023-03-14T03:15:15.779Z,0.00
2023-03-14T03:16:15.851Z,0.00
2023-03-14T03:17:15.789Z,0.00
2023-03-14T03:18:15.845Z,0.00
2023-03-14T03:19:15.853Z,0.00
2023-03-14T03:20:15.862Z,0.00
2023-03-14T03:21:15.881Z,0.00
2023-03-14T03:22:15.871Z,0.00
2023-03-14T03:23:15.894Z,0.00
2023-03-14T03:24:15.914Z,0.00
2023-03-14T03:25:15.930Z,0.00
2023-03-14T03:26:15.924Z,0.00
2023-03-14T03:27:15.932Z,0.00
2023-03-14T03:28:15.941Z,0.00
2023-03-14T03:29:15.965Z,0.00
2023-03-14T03:30:15.967Z,0.00
2023-03-14T03:31:16.064Z,0.00
2023-03-14T03:32:16.012Z,0.00
2023-03-14T03:33:15.999Z,0.00
2023-03-14T03:34:16.039Z,0.00
2023-03-14T03:35:16.052Z,0.00
2023-03-14T03:36:16.084Z,0.00
2023-03-14T03:37:16.031Z,0.00
2023-03-14T03:38:16.177Z,0.00
2023-03-14T03:39:16.155Z,0.00
2023-03-14T03:40:16.163Z,0.00
2023-03-14T03:41:16.186Z,0.00
2023-03-14T03:42:16.159Z,0.00
2023-03-14T03:43:16.194Z,0.00
2023-03-14T03:44:16.173Z,0.00
2023-03-14T03:45:16.179Z,0.00
2023-03-14T03:46:16.343Z,0.00
2023-03-14T03:47:16.262Z,0.00
2023-03-14T03:48:16.281Z,0.00
2023-03-14T03:49:16.266Z,0.00
2023-03-14T03:50:16.262Z,0.00
2023-03-14T03:51:16.285Z,0.00
2023-03-14T03:52:16.271Z,0.00
2023-03-14T03:53:26.879Z,0.00
2023-03-14T03:54:16.366Z,0.00
2023-03-14T03:55:16.348Z,0.00
2023-03-14T03:56:16.380Z,0.00
2023-03-14T03:57:16.370Z,0.00
2023-03-14T03:58:16.333Z,0.00
2023-03-14T03:59:16.350Z,0.00
2023-03-14T04:00:16.368Z,0.00
2023-03-14T04:01:16.384Z,0.00
2023-03-14T04:02:16.429Z,0.00
2023-03-14T04:03:16.363Z,0.00
2023-03-14T04:04:16.392Z,0.00
2023-03-14T04:05:16.358Z,0.00
2023-03-14T04:06:16.400Z,0.00
2023-03-14T04:07:16.371Z,0.00
2023-03-14T04:08:16.355Z,0.00
2023-03-14T04:09:16.345Z,0.00
2023-03-14T04:10:16.370Z,0.00
2023-03-14T04:11:17.254Z,0.00
2023-03-14T04:12:16.395Z,0.00
2023-03-14T04:13:16.381Z,0.00
2023-03-14T04:14:16.392Z,0.00
2023-03-14T04:15:16.390Z,0.00
2023-03-14T04:16:16.380Z,0.00
2023-03-14T04:17:16.378Z,0.00
2023-03-14T04:18:16.409Z,0.00
2023-03-14T04:19:16.364Z,0.00
2023-03-14T04:20:16.358Z,0.00
2023-03-14T04:21:16.362Z,0.00
2023-03-14T04:22:16.418Z,0.00
2023-03-14T04:23:16.393Z,0.00
2023-03-14T04:24:16.374Z,0.00
2023-03-14T04:25:16.435Z,0.00
2023-03-14T04:26:16.410Z,0.00
2023-03-14T04:27:16.392Z,0.00
2023-03-14T04:28:16.391Z,0.00
2023-03-14T04:29:16.409Z,0.00
2023-03-14T04:30:16.402Z,0.00
2023-03-14T04:31:16.444Z,0.00
2023-03-14T04:32:16.420Z,0.00
2023-03-14T04:33:16.399Z,0.00
2023-03-14T04:34:16.351Z,0.00
2023-03-14T04:35:16.377Z,0.00
2023-03-14T04:36:16.392Z,0.00
2023-03-14T04:37:16.389Z,0.00
2023-03-14T04:38:16.384Z,0.00
2023-03-14T04:39:16.370Z,0.00
2023-03-14T04:40:18.594Z,0.00
2023-03-14T04:41:16.393Z,0.00
2023-03-14T04:42:16.397Z,0.00
2023-03-14T04:43:16.391Z,0.00
2023-03-14T04:44:16.394Z,0.00
2023-03-14T04:45:16.385Z,0.00
2023-03-14T04:46:16.449Z,0.00
2023-03-14T04:47:16.418Z,0.00
2023-03-14T04:48:16.415Z,0.00
2023-03-14T04:49:16.412Z,0.00
2023-03-14T04:50:16.404Z,0.00
2023-03-14T04:51:16.394Z,0.00
2023-03-14T04:52:16.448Z,0.00
2023-03-14T04:53:16.428Z,0.00
2023-03-14T04:54:16.410Z,0.00
2023-03-14T04:55:16.425Z,0.00
2023-03-14T04:56:16.415Z,0.00
2023-03-14T04:57:16.448Z,0.00
2023-03-14T04:58:16.434Z,0.00
2023-03-14T04:59:16.446Z,0.00
2023-03-14T05:00:16.421Z,0.00
2023-03-14T05:01:16.398Z,0.00
2023-03-14T05:02:16.433Z,0.00
2023-03-14T05:03:16.456Z,0.00
2023-03-14T05:04:16.403Z,0.00
2023-03-14T05:05:16.410Z,0.00
2023-03-14T05:06:16.425Z,0.00
2023-03-14T05:07:16.435Z,0.00
2023-03-14T05:08:16.541Z,0.00
2023-03-14T05:09:16.525Z,0.00
2023-03-14T05:10:16.520Z,0.00
2023-03-14T05:11:16.511Z,0.00
2023-03-14T05:12:16.553Z,0.00
2023-03-14T05:13:16.518Z,0.00
2023-03-14T05:14:16.548Z,0.00
2023-03-14T05:15:16.548Z,0.00
2023-03-14T05:16:16.583Z,0.00
2023-03-14T05:17:16.528Z,0.00
2023-03-14T05:18:16.573Z,0.00
2023-03-14T05:19:16.554Z,0.00
2023-03-14T05:20:16.584Z,0.00
2023-03-14T05:21:16.700Z,0.00
2023-03-14T05:22:16.701Z,0.00
2023-03-14T05:23:16.681Z,0.00
2023-03-14T05:24:16.720Z,0.00
2023-03-14T05:25:16.730Z,0.00
2023-03-14T05:26:16.715Z,0.00
2023-03-14T05:27:16.858Z,0.00
2023-03-14T05:28:16.722Z,0.00
2023-03-14T05:29:16.714Z,0.00
2023-03-14T05:30:16.753Z,0.00
2023-03-14T05:31:16.838Z,0.00
2023-03-14T05:32:16.769Z,0.00
2023-03-14T05:33:16.775Z,0.00
2023-03-14T05:34:16.774Z,0.00
2023-03-14T05:35:16.812Z,0.00
2023-03-14T05:36:16.839Z,0.00
2023-03-14T05:37:18.356Z,0.00
2023-03-14T05:38:16.851Z,0.00
2023-03-14T05:39:16.834Z,0.00
2023-03-14T05:40:16.887Z,0.00
2023-03-14T05:41:16.861Z,0.00
2023-03-14T05:42:16.884Z,0.00
2023-03-14T05:43:16.892Z,0.00
2023-03-14T05:44:16.914Z,0.00
2023-03-14T05:45:16.917Z,0.00
2023-03-14T05:46:17.024Z,0.00
2023-03-14T05:47:16.967Z,0.00
2023-03-14T05:48:16.948Z,0.00
2023-03-14T05:49:16.962Z,0.00
2023-03-14T05:50:17.028Z,0.00
2023-03-14T05:51:16.988Z,0.00
2023-03-14T05:52:17.002Z,0.00
2023-03-14T05:53:17.047Z,0.00
2023-03-14T05:54:17.056Z,0.00
2023-03-14T05:55:17.108Z,0.00
2023-03-14T05:56:17.073Z,0.00
2023-03-14T05:57:17.069Z,0.00
2023-03-14T05:58:17.103Z,0.00
2023-03-14T05:59:17.070Z,0.00
2023-03-14T06:00:17.104Z,0.00
2023-03-14T06:01:17.119Z,0.00
2023-03-14T06:02:17.240Z,0.00
2023-03-14T06:03:17.143Z,0.00
2023-03-14T06:04:17.181Z,0.00
2023-03-14T06:05:17.202Z,0.00
2023-03-14T06:06:17.172Z,0.00
2023-03-14T06:07:17.181Z,0.00
2023-03-14T06:08:18.100Z,0.00
2023-03-14T06:09:17.193Z,0.00
2023-03-14T06:10:17.219Z,0.00
2023-03-14T06:11:17.245Z,0.00
2023-03-14T06:12:17.242Z,0.00
2023-03-14T06:13:17.257Z,0.00
2023-03-14T06:14:17.486Z,0.00
2023-03-14T06:15:17.371Z,0.00
2023-03-14T06:16:17.350Z,0.00
2023-03-14T06:17:17.314Z,0.00
2023-03-14T06:18:17.311Z,0.00
2023-03-14T06:19:17.333Z,0.00
2023-03-14T06:20:17.373Z,0.00
2023-03-14T06:21:19.234Z,0.00
2023-03-14T06:22:17.425Z,0.00
2023-03-14T06:23:17.405Z,0.00
2023-03-14T06:24:17.405Z,0.00
2023-03-14T06:25:17.429Z,0.00
2023-03-14T06:26:17.425Z,0.00
2023-03-14T06:27:17.409Z,0.00
2023-03-14T06:28:17.480Z,0.00
2023-03-14T06:29:17.482Z,0.00
2023-03-14T06:30:17.520Z,0.00
2023-03-14T06:31:17.591Z,0.00
2023-03-14T06:32:17.555Z,0.00
2023-03-14T06:33:17.514Z,0.00
2023-03-14T06:34:17.556Z,0.00
2023-03-14T06:35:17.563Z,0.00
2023-03-14T06:36:17.543Z,0.00
2023-03-14T06:37:19.902Z,0.00
2023-03-14T06:38:17.584Z,0.00
2023-03-14T06:39:17.599Z,0.00
2023-03-14T06:40:17.588Z,0.00
2023-03-14T06:41:17.609Z,0.00
2023-03-14T06:42:17.621Z,0.00
2023-03-14T06:43:17.609Z,0.00
2023-03-14T06:44:17.626Z,0.00
2023-03-14T06:45:17.596Z,0.00
2023-03-14T06:46:17.610Z,0.00
2023-03-14T06:47:17.622Z,0.00
2023-03-14T06:48:17.612Z,0.00
2023-03-14T06:49:17.622Z,0.00
2023-03-14T06:50:17.592Z,0.00
2023-03-14T06:51:17.624Z,0.00
2023-03-14T06:52:17.627Z,0.00
2023-03-14T06:53:17.625Z,0.00
2023-03-14T06:54:17.604Z,0.00
2023-03-14T06:55:17.605Z,0.00
2023-03-14T06:56:17.639Z,0.00
2023-03-14T06:57:42.365Z,0.00
2023-03-14T06:58:42.368Z,0.00
2023-03-14T06:59:42.401Z,0.00
2023-03-14T07:00:42.404Z,0.00
2023-03-14T07:01:42.430Z,0.00
2023-03-14T07:02:43.454Z,0.00
2023-03-14T07:03:42.401Z,0.00
2023-03-14T07:04:42.435Z,0.00
2023-03-14T07:05:42.392Z,0.00
2023-03-14T07:06:42.398Z,0.00
2023-03-14T07:07:42.407Z,0.00
2023-03-14T07:08:42.357Z,0.00
2023-03-14T07:09:42.386Z,0.00
2023-03-14T07:10:42.362Z,0.00
2023-03-14T07:11:42.380Z,0.00
2023-03-14T07:12:42.377Z,0.00
2023-03-14T07:13:42.360Z,0.00
2023-03-14T07:14:42.385Z,0.00
2023-03-14T07:15:42.413Z,0.00
2023-03-14T07:16:42.365Z,0.00
2023-03-14T07:17:42.401Z,0.00
2023-03-14T07:18:42.380Z,0.00
2023-03-14T07:19:42.361Z,0.00
2023-03-14T07:20:42.388Z,0.00
2023-03-14T07:21:42.375Z,0.00
2023-03-14T07:22:42.412Z,0.00
2023-03-14T07:23:42.385Z,0.00
2023-03-14T07:24:42.394Z,0.00
2023-03-14T07:25:42.391Z,0.00
2023-03-14T07:26:42.385Z,0.00
2023-03-14T07:27:42.402Z,0.00
2023-03-14T07:28:42.383Z,0.00
2023-03-14T07:29:42.393Z,0.00
2023-03-14T07:30:42.959Z,0.00
2023-03-14T07:31:42.386Z,0.00
2023-03-14T07:32:42.473Z,0.00
2023-03-14T07:33:42.415Z,0.00
2023-03-14T07:34:42.417Z,0.00
2023-03-14T07:35:42.676Z,0.00
2023-03-14T07:36:42.634Z,0.00
2023-03-14T07:37:42.659Z,0.00
2023-03-14T07:38:42.671Z,0.00
2023-03-14T07:39:42.697Z,0.00
2023-03-14T07:40:42.700Z,0.00
2023-03-14T07:41:42.729Z,0.00
2023-03-14T07:42:42.723Z,0.00
2023-03-14T07:43:42.742Z,0.00
2023-03-14T07:44:42.730Z,0.00
2023-03-14T07:45:43.425Z,0.00
2023-03-14T07:46:42.791Z,0.00
2023-03-14T07:47:42.793Z,0.00
2023-03-14T07:48:42.795Z,0.00
2023-03-14T07:49:42.779Z,0.00
2023-03-14T07:50:42.835Z,0.00
2023-03-14T07:51:42.820Z,0.00
2023-03-14T07:52:42.839Z,0.00
2023-03-14T07:53:42.829Z,0.00
2023-03-14T07:54:42.866Z,0.00
2023-03-14T07:55:42.878Z,0.00
2023-03-14T07:56:42.862Z,0.00
2023-03-14T07:57:42.864Z,0.00
2023-03-14T07:58:42.879Z,0.00
2023-03-14T07:59:42.867Z,0.00
2023-03-14T08:00:42.878Z,0.00
2023-03-14T08:01:42.862Z,0.00
2023-03-14T08:02:42.935Z,0.00
2023-03-14T08:03:42.942Z,0.00
2023-03-14T08:04:42.972Z,0.00
2023-03-14T08:05:42.953Z,0.00
2023-03-14T08:06:43.013Z,0.00
2023-03-14T08:07:43.026Z,0.00
2023-03-14T08:08:43.037Z,0.00
2023-03-14T08:09:43.101Z,0.00
2023-03-14T08:10:43.051Z,0.00
2023-03-14T08:11:43.096Z,0.00
2023-03-14T08:12:43.052Z,0.00
2023-03-14T08:13:43.060Z,0.00
2023-03-14T08:14:43.094Z,0.00
2023-03-14T08:15:43.134Z,0.00
2023-03-14T08:16:43.124Z,0.00
2023-03-14T08:17:43.081Z,0.00
2023-03-14T08:18:43.089Z,0.00
2023-03-14T08:19:43.092Z,0.00
2023-03-14T08:20:43.107Z,0.00
2023-03-14T08:21:43.137Z,0.00
2023-03-14T08:22:43.105Z,0.00
2023-03-14T08:23:43.090Z,0.00
2023-03-14T08:24:43.133Z,0.00
2023-03-14T08:25:43.186Z,0.00
2023-03-14T08:26:43.184Z,0.00
2023-03-14T08:27:43.176Z,0.00
2023-03-14T08:28:43.151Z,0.00
2023-03-14T08:29:43.201Z,0.00
2023-03-14T08:30:46.644Z,0.00
2023-03-14T08:31:43.284Z,0.00
2023-03-14T08:32:43.266Z,0.00
2023-03-14T08:33:43.188Z,0.00
2023-03-14T08:34:43.175Z,0.00
2023-03-14T08:35:43.162Z,0.00
2023-03-14T08:36:43.216Z,0.00
2023-03-14T08:37:43.194Z,0.00
2023-03-14T08:38:43.262Z,0.00
2023-03-14T08:39:43.221Z,0.00
2023-03-14T08:40:43.189Z,0.00
2023-03-14T08:41:43.199Z,0.00
2023-03-14T08:42:43.203Z,0.00
2023-03-14T08:43:43.237Z,0.00
2023-03-14T08:44:43.334Z,0.00
2023-03-14T08:45:43.182Z,0.00
2023-03-14T08:46:43.228Z,0.00
2023-03-14T08:47:43.237Z,0.00
2023-03-14T08:48:43.235Z,0.00
2023-03-14T08:49:43.215Z,0.00
2023-03-14T08:50:43.192Z,0.00
2023-03-14T08:51:43.195Z,0.00
2023-03-14T08:52:43.272Z,0.00
2023-03-14T08:53:43.252Z,0.00
2023-03-14T08:54:43.199Z,0.00
2023-03-14T08:55:43.230Z,0.00
2023-03-14T08:56:43.206Z,0.00
2023-03-14T08:57:43.177Z,0.00
2023-03-14T08:58:43.216Z,0.00
2023-03-14T08:59:43.217Z,0.00
2023-03-14T09:00:43.247Z,0.00
2023-03-14T09:01:43.214Z,0.00
2023-03-14T09:02:43.240Z,0.00
2023-03-14T09:03:43.282Z,0.00
2023-03-14T09:04:43.206Z,0.00
2023-03-14T09:05:43.216Z,0.00
2023-03-14T09:06:43.204Z,0.00
2023-03-14T09:07:43.219Z,0.00
2023-03-14T09:08:43.221Z,0.00
2023-03-14T09:09:43.240Z,0.00
2023-03-14T09:10:43.230Z,0.00
2023-03-14T09:11:43.233Z,0.00
2023-03-14T09:12:43.215Z,0.00
2023-03-14T09:13:43.342Z,0.00
2023-03-14T09:14:43.228Z,0.00
2023-03-14T09:15:43.238Z,0.00
2023-03-14T09:16:43.299Z,0.00
2023-03-14T09:17:43.233Z,0.00
2023-03-14T09:18:43.260Z,0.00
2023-03-14T09:19:43.281Z,0.00
2023-03-14T09:20:43.246Z,0.00
2023-03-14T09:21:43.234Z,0.00
2023-03-14T09:22:43.223Z,0.00
2023-03-14T09:23:44.388Z,0.00
2023-03-14T09:24:43.243Z,0.00
2023-03-14T09:25:43.260Z,0.00
2023-03-14T09:26:43.240Z,0.00
2023-03-14T09:27:43.280Z,0.00
2023-03-14T09:28:43.274Z,0.00
2023-03-14T09:29:43.292Z,0.00
2023-03-14T09:30:43.325Z,0.00
2023-03-14T09:31:43.332Z,0.00
2023-03-14T09:32:43.371Z,0.00
2023-03-14T09:33:43.360Z,0.00
2023-03-14T09:34:43.346Z,0.00
2023-03-14T09:35:43.378Z,0.00
2023-03-14T09:36:43.376Z,0.00
2023-03-14T09:37:43.376Z,0.00
2023-03-14T09:38:43.393Z,0.00
2023-03-14T09:39:43.409Z,0.00
2023-03-14T09:40:43.414Z,0.00
2023-03-14T09:41:43.427Z,0.00
2023-03-14T09:42:43.420Z,0.00
2023-03-14T09:43:43.442Z,0.00
2023-03-14T09:44:43.451Z,0.00
2023-03-14T09:45:43.483Z,0.00
2023-03-14T09:46:43.480Z,0.00
2023-03-14T09:47:56.516Z,0.00
2023-03-14T09:48:43.494Z,0.00
2023-03-14T09:49:43.498Z,0.00
2023-03-14T09:50:43.494Z,0.00
2023-03-14T09:51:43.517Z,0.00
2023-03-14T09:52:43.482Z,0.00
2023-03-14T09:53:43.477Z,0.00
2023-03-14T09:54:43.512Z,0.00
2023-03-14T09:55:43.500Z,0.00
2023-03-14T09:56:43.495Z,0.00
2023-03-14T09:57:43.505Z,0.00
2023-03-14T09:58:43.501Z,0.00
2023-03-14T09:59:43.541Z,0.00
2023-03-14T10:00:43.498Z,0.00
2023-03-14T10:01:43.616Z,0.00
2023-03-14T10:02:43.512Z,0.00
2023-03-14T10:03:43.483Z,0.00
2023-03-14T10:04:43.563Z,0.00
2023-03-14T10:05:43.502Z,0.00
2023-03-14T10:06:43.492Z,0.00
2023-03-14T10:07:43.498Z,0.00
2023-03-14T10:08:43.509Z,0.00
2023-03-14T10:09:43.540Z,0.00
2023-03-14T10:10:43.526Z,0.00
2023-03-14T10:11:43.512Z,0.00
2023-03-14T10:12:43.529Z,0.00
2023-03-14T10:13:43.507Z,0.00
2023-03-14T10:14:43.530Z,0.00
2023-03-14T10:15:43.496Z,0.00
2023-03-14T10:16:43.575Z,0.00
2023-03-14T10:17:43.510Z,0.00
2023-03-14T10:18:43.514Z,0.00
2023-03-14T10:19:43.510Z,0.00
2023-03-14T10:20:43.542Z,0.00
2023-03-14T10:21:43.540Z,0.00
2023-03-14T10:22:43.527Z,0.00
2023-03-14T10:23:43.526Z,0.00
2023-03-14T10:24:43.520Z,0.00
2023-03-14T10:25:43.523Z,0.00
2023-03-14T10:26:43.506Z,0.00
2023-03-14T10:27:43.537Z,0.00
2023-03-14T10:28:43.517Z,0.00
2023-03-14T10:29:43.538Z,0.00
2023-03-14T10:30:43.581Z,0.00
2023-03-14T10:31:43.522Z,0.00
2023-03-14T10:32:43.584Z,0.00
2023-03-14T10:33:43.514Z,0.00
2023-03-14T10:34:43.527Z,0.00
2023-03-14T10:35:43.601Z,0.00
2023-03-14T10:36:43.562Z,0.00
2023-03-14T10:37:43.559Z,0.00
2023-03-14T10:38:43.532Z,0.00
2023-03-14T10:39:43.549Z,0.00
2023-03-14T10:40:43.557Z,0.00
2023-03-14T10:41:43.554Z,0.00
2023-03-14T10:42:43.587Z,0.00
2023-03-14T10:43:43.545Z,0.00
2023-03-14T10:44:43.561Z,0.00
2023-03-14T10:45:43.544Z,0.00
2023-03-14T10:46:43.593Z,0.00
2023-03-14T10:47:43.603Z,0.00
2023-03-14T10:48:43.551Z,0.00
2023-03-14T10:49:43.560Z,0.00
2023-03-14T10:50:43.572Z,0.00
2023-03-14T10:51:43.567Z,0.00
2023-03-14T10:53:00.870Z,0.00
2023-03-14T10:53:43.568Z,0.00
2023-03-14T10:54:43.565Z,0.00
2023-03-14T10:55:43.541Z,0.00
2023-03-14T10:56:43.576Z,0.00
2023-03-14T10:57:43.674Z,0.00
2023-03-14T10:58:43.579Z,0.00
2023-03-14T10:59:43.588Z,0.00
2023-03-14T11:00:43.548Z,0.00
2023-03-14T11:01:43.643Z,0.00
2023-03-14T11:02:43.564Z,0.00
2023-03-14T11:03:43.586Z,0.00
2023-03-14T11:04:43.594Z,0.00
2023-03-14T11:05:43.568Z,0.00
2023-03-14T11:06:43.573Z,0.00
2023-03-14T11:07:43.581Z,0.00
2023-03-14T11:08:43.616Z,0.00
2023-03-14T11:09:43.578Z,0.00
2023-03-14T11:10:43.598Z,0.00
2023-03-14T11:11:43.588Z,0.00
2023-03-14T11:12:43.565Z,0.00
2023-03-14T11:13:43.584Z,0.00
2023-03-14T11:14:43.609Z,0.00
2023-03-14T11:15:43.623Z,0.00
2023-03-14T11:16:43.591Z,0.00
2023-03-14T11:17:43.588Z,0.00
2023-03-14T11:18:43.567Z,0.00
2023-03-14T11:19:43.666Z,0.00
2023-03-14T11:20:43.604Z,0.00
2023-03-14T11:21:43.571Z,0.00
2023-03-14T11:22:43.584Z,0.00
2023-03-14T11:23:43.577Z,0.00
2023-03-14T11:24:43.620Z,0.00
2023-03-14T11:25:43.582Z,0.00
2023-03-14T11:26:43.590Z,0.00
2023-03-14T11:27:43.629Z,0.00
2023-03-14T11:28:43.590Z,0.00
2023-03-14T11:29:43.630Z,0.00
2023-03-14T11:30:43.580Z,0.00
2023-03-14T11:31:43.582Z,0.00
2023-03-14T11:32:43.606Z,0.00
2023-03-14T11:33:43.582Z,0.00
2023-03-14T11:34:43.630Z,0.00
2023-03-14T11:35:43.679Z,0.00
2023-03-14T11:36:43.590Z,0.00
2023-03-14T11:37:43.602Z,0.00
2023-03-14T11:38:43.594Z,0.00
2023-03-14T11:39:43.619Z,0.00
2023-03-14T11:40:43.603Z,0.00
2023-03-14T11:41:43.611Z,0.00
2023-03-14T11:42:43.603Z,0.00
2023-03-14T11:43:43.605Z,0.00
2023-03-14T11:44:43.610Z,0.00
2023-03-14T11:45:43.647Z,0.00
2023-03-14T11:46:44.241Z,0.00
2023-03-14T11:47:44.064Z,0.00
2023-03-14T11:48:43.623Z,0.00
2023-03-14T11:49:44.032Z,0.00
2023-03-14T11:50:43.993Z,0.00
2023-03-14T11:51:43.636Z,0.00
2023-03-14T11:52:44.504Z,0.00
2023-03-14T11:53:43.629Z,0.00
2023-03-14T11:54:43.643Z,0.00
2023-03-14T11:55:43.627Z,0.00
2023-03-14T11:56:43.624Z,0.00
2023-03-14T11:57:43.622Z,0.00
2023-03-14T11:58:44.472Z,0.00
2023-03-14T11:59:43.643Z,0.00
2023-03-14T12:00:43.626Z,0.00
2023-03-14T12:01:43.663Z,0.00
2023-03-14T12:02:43.666Z,0.00
2023-03-14T12:03:43.697Z,0.00
2023-03-14T12:04:44.636Z,0.00
2023-03-14T12:05:43.672Z,0.00
2023-03-14T12:06:43.668Z,0.00
2023-03-14T12:07:43.685Z,0.00
2023-03-14T12:08:43.714Z,0.00
2023-03-14T12:09:43.765Z,0.00
2023-03-14T12:10:43.784Z,0.00
2023-03-14T12:11:43.763Z,0.00
2023-03-14T12:12:43.810Z,0.00
2023-03-14T12:13:43.766Z,0.00
2023-03-14T12:14:43.739Z,0.00
2023-03-14T12:15:43.785Z,0.00
2023-03-14T12:16:43.800Z,0.00
2023-03-14T12:17:43.831Z,0.00
2023-03-14T12:18:43.842Z,0.00
2023-03-14T12:19:43.839Z,0.00
2023-03-14T12:20:43.895Z,0.00
2023-03-14T12:21:43.859Z,0.00
2023-03-14T12:22:43.857Z,0.00
2023-03-14T12:23:43.857Z,0.00
2023-03-14T12:24:43.876Z,0.00
2023-03-14T12:25:43.859Z,0.00
2023-03-14T12:26:43.934Z,0.00
2023-03-14T12:27:43.915Z,0.00
2023-03-14T12:28:43.905Z,0.00
2023-03-14T12:29:43.908Z,0.00
2023-03-14T12:30:43.927Z,0.00
2023-03-14T12:31:44.012Z,0.00
2023-03-14T12:32:43.962Z,0.00
2023-03-14T12:33:43.987Z,0.00
2023-03-14T12:34:44.173Z,0.00
2023-03-14T12:35:44.223Z,0.00
2023-03-14T12:36:44.037Z,0.00
2023-03-14T12:37:44.011Z,0.00
2023-03-14T12:38:44.044Z,0.00
2023-03-14T12:39:44.033Z,0.00
2023-03-14T12:40:44.107Z,0.00
2023-03-14T12:41:44.142Z,0.00
2023-03-14T12:42:45.415Z,0.00
2023-03-14T12:43:44.086Z,0.00
2023-03-14T12:44:44.105Z,0.00
2023-03-14T12:45:45.229Z,0.00
2023-03-14T12:46:44.110Z,0.00
2023-03-14T12:47:44.118Z,0.00
2023-03-14T12:48:44.140Z,0.00
2023-03-14T12:49:44.195Z,0.00
2023-03-14T12:50:44.210Z,0.00
2023-03-14T12:51:44.264Z,0.00
2023-03-14T12:52:46.327Z,0.00
2023-03-14T12:53:44.234Z,0.00
2023-03-14T12:54:44.482Z,0.00
2023-03-14T12:55:44.241Z,0.00
2023-03-14T12:56:44.253Z,0.00
2023-03-14T12:58:00.615Z,0.00
2023-03-14T12:59:01.512Z,0.00
2023-03-14T13:00:01.527Z,0.00
2023-03-14T13:01:01.563Z,0.00
2023-03-14T13:02:01.853Z,0.00
2023-03-14T13:03:01.498Z,0.00
2023-03-14T13:04:01.588Z,0.00
2023-03-14T13:05:01.526Z,0.00
2023-03-14T13:06:01.536Z,0.00
2023-03-14T13:07:01.514Z,0.00
2023-03-14T13:08:01.491Z,0.00
2023-03-14T13:09:01.507Z,0.00
2023-03-14T13:10:01.524Z,0.00
2023-03-14T13:11:01.528Z,0.00
2023-03-14T13:12:01.507Z,0.00
2023-03-14T13:13:01.500Z,0.00
2023-03-14T13:14:01.509Z,0.00
2023-03-14T13:15:01.518Z,0.00
2023-03-14T13:16:01.909Z,0.00